sensor_id;sensor_type;location;lat;lon;timestamp;P1;durP1;ratioP1;P2;durP2;ratioP2
75930;SDS011;64609;47.052;15.462;2023-05-10T19:40:38;5.85;;;4.07;;
75930;SDS011;64609;47.052;15.462;2023-05-10T19:43:03;13.52;;;4.88;;
75930;SDS011;64609;47.052;15.462;2023-05-10T19:45:29;9.15;;;4.32;;
75930;SDS011;64609;47.052;15.462;2023-05-10T19:47:55;5.85;;;4.60;;
75930;SDS011;64609;47.052;15.462;2023-05-10T19:50:21;6.00;;;4.22;;
75930;SDS011;64609;47.052;15.462;2023-05-10T19:52:46;7.00;;;4.30;;
75930;SDS011;64609;47.052;15.462;2023-05-10T19:55:14;9.50;;;4.30;;
75930;SDS011;64609;47.052;15.462;2023-05-10T19:57:50;5.55;;;4.50;;
75930;SDS011;64609;47.052;15.462;2023-05-10T20:00:15;8.02;;;4.50;;
75930;SDS011;64609;47.052;15.462;2023-05-10T20:02:41;8.18;;;4.65;;
75930;SDS011;64609;47.052;15.462;2023-05-10T20:05:07;6.20;;;4.43;;
75930;SDS011;64609;47.052;15.462;2023-05-10T20:07:33;5.90;;;4.55;;
75930;SDS011;64609;47.052;15.462;2023-05-10T20:09:58;8.57;;;4.40;;
75930;SDS011;64609;47.052;15.462;2023-05-10T20:12:24;6.20;;;4.18;;
75930;SDS011;64609;47.052;15.462;2023-05-10T20:14:49;5.88;;;4.22;;
75930;SDS011;64609;47.052;15.462;2023-05-10T20:17:15;7.15;;;4.32;;
75930;SDS011;64609;47.052;15.462;2023-05-10T20:19:41;6.70;;;4.57;;
75930;SDS011;64609;47.052;15.462;2023-05-10T20:22:06;5.75;;;4.25;;
75930;SDS011;64609;47.052;15.462;2023-05-10T20:24:33;7.68;;;4.55;;
75930;SDS011;64609;47.052;15.462;2023-05-10T20:27:00;7.40;;;4.00;;
75930;SDS011;64609;47.052;15.462;2023-05-10T20:29:26;5.30;;;4.25;;
75930;SDS011;64609;47.052;15.462;2023-05-10T20:31:52;7.28;;;4.40;;
75930;SDS011;64609;47.052;15.462;2023-05-10T20:34:17;6.32;;;4.03;;
75930;SDS011;64609;47.052;15.462;2023-05-10T20:36:43;6.20;;;4.13;;
75930;SDS011;64609;47.052;15.462;2023-05-10T20:39:09;5.20;;;4.47;;
75930;SDS011;64609;47.052;15.462;2023-05-10T20:41:34;5.70;;;4.00;;
75930;SDS011;64609;47.052;15.462;2023-05-10T20:44:00;8.52;;;4.45;;
75930;SDS011;64609;47.052;15.462;2023-05-10T20:46:26;9.60;;;4.30;;
75930;SDS011;64609;47.052;15.462;2023-05-10T20:48:52;5.30;;;4.15;;
75930;SDS011;64609;47.052;15.462;2023-05-10T20:51:18;9.55;;;4.88;;
75930;SDS011;64609;47.052;15.462;2023-05-10T20:53:43;7.38;;;4.80;;
75930;SDS011;64609;47.052;15.462;2023-05-10T20:56:09;8.18;;;4.30;;
75930;SDS011;64609;47.052;15.462;2023-05-10T20:58:35;9.93;;;4.60;;
75930;SDS011;64609;47.052;15.462;2023-05-10T21:01:00;9.13;;;4.53;;
75930;SDS011;64609;47.052;15.462;2023-05-10T21:03:26;7.22;;;5.00;;
75930;SDS011;64609;47.052;15.462;2023-05-10T21:05:52;6.20;;;4.75;;
75930;SDS011;64609;47.052;15.462;2023-05-10T21:08:18;7.82;;;5.00;;
75930;SDS011;64609;47.052;15.462;2023-05-10T21:10:43;7.85;;;4.78;;
75930;SDS011;64609;47.052;15.462;2023-05-10T21:13:09;8.52;;;4.70;;
75930;SDS011;64609;47.052;15.462;2023-05-10T21:15:35;7.13;;;5.00;;
75930;SDS011;64609;47.052;15.462;2023-05-10T21:18:00;6.40;;;4.63;;
75930;SDS011;64609;47.052;15.462;2023-05-10T21:20:26;5.55;;;4.55;;
75930;SDS011;64609;47.052;15.462;2023-05-10T21:22:52;7.70;;;4.78;;
75930;SDS011;64609;47.052;15.462;2023-05-10T21:25:17;6.47;;;4.60;;
75930;SDS011;64609;47.052;15.462;2023-05-10T21:27:43;7.32;;;4.70;;
75930;SDS011;64609;47.052;15.462;2023-05-10T21:30:09;4.85;;;4.35;;
75930;SDS011;64609;47.052;15.462;2023-05-10T21:32:34;6.32;;;4.30;;
75930;SDS011;64609;47.052;15.462;2023-05-10T21:35:00;7.88;;;4.43;;
75930;SDS011;64609;47.052;15.462;2023-05-10T21:37:26;7.80;;;5.00;;
75930;SDS011;64609;47.052;15.462;2023-05-10T21:39:52;6.78;;;4.50;;
75930;SDS011;64609;47.052;15.462;2023-05-10T21:42:18;9.85;;;4.57;;
75930;SDS011;64609;47.052;15.462;2023-05-10T21:44:43;7.57;;;4.90;;
75930;SDS011;64609;47.052;15.462;2023-05-10T21:47:09;7.10;;;4.88;;
75930;SDS011;64609;47.052;15.462;2023-05-10T21:49:35;5.30;;;4.72;;
75930;SDS011;64609;47.052;15.462;2023-05-10T21:52:01;6.30;;;4.47;;
75930;SDS011;64609;47.052;15.462;2023-05-10T21:54:26;9.38;;;4.90;;
75930;SDS011;64609;47.052;15.462;2023-05-10T21:56:52;6.60;;;4.90;;
75930;SDS011;64609;47.052;15.462;2023-05-10T21:59:17;14.65;;;5.53;;
75930;SDS011;64609;47.052;15.462;2023-05-10T22:01:45;6.35;;;4.93;;
75930;SDS011;64609;47.052;15.462;2023-05-10T22:04:11;9.05;;;4.72;;
75930;SDS011;64609;47.052;15.462;2023-05-10T22:06:36;5.55;;;4.10;;
75930;SDS011;64609;47.052;15.462;2023-05-10T22:09:02;5.70;;;4.60;;
75930;SDS011;64609;47.052;15.462;2023-05-10T22:11:28;6.90;;;4.53;;
75930;SDS011;64609;47.052;15.462;2023-05-10T22:13:54;5.60;;;4.75;;
75930;SDS011;64609;47.052;15.462;2023-05-10T22:16:20;7.90;;;4.85;;
75930;SDS011;64609;47.052;15.462;2023-05-10T22:18:45;4.90;;;4.40;;
75930;SDS011;64609;47.052;15.462;2023-05-10T22:21:11;7.25;;;4.47;;
75930;SDS011;64609;47.052;15.462;2023-05-10T22:23:36;6.90;;;4.72;;
75930;SDS011;64609;47.052;15.462;2023-05-10T22:26:02;6.45;;;4.60;;
75930;SDS011;64609;47.052;15.462;2023-05-10T22:28:28;6.57;;;5.10;;
75930;SDS011;64609;47.052;15.462;2023-05-10T22:30:54;7.43;;;4.93;;
75930;SDS011;64609;47.052;15.462;2023-05-10T22:33:20;6.28;;;5.07;;
75930;SDS011;64609;47.052;15.462;2023-05-10T22:35:45;7.30;;;5.10;;
75930;SDS011;64609;47.052;15.462;2023-05-10T22:38:11;7.43;;;5.10;;
75930;SDS011;64609;47.052;15.462;2023-05-10T22:40:37;7.15;;;5.05;;
75930;SDS011;64609;47.052;15.462;2023-05-10T22:43:03;8.30;;;5.53;;
75930;SDS011;64609;47.052;15.462;2023-05-10T22:45:29;7.95;;;5.38;;
75930;SDS011;64609;47.052;15.462;2023-05-10T22:47:54;10.32;;;5.88;;
75930;SDS011;64609;47.052;15.462;2023-05-10T22:50:20;7.03;;;5.25;;
75930;SDS011;64609;47.052;15.462;2023-05-10T22:52:46;7.50;;;5.40;;
75930;SDS011;64609;47.052;15.462;2023-05-10T22:55:12;9.35;;;5.18;;
75930;SDS011;64609;47.052;15.462;2023-05-10T22:57:37;6.97;;;5.40;;
75930;SDS011;64609;47.052;15.462;2023-05-10T23:00:03;9.38;;;5.65;;
75930;SDS011;64609;47.052;15.462;2023-05-10T23:02:30;6.30;;;5.38;;
75930;SDS011;64609;47.052;15.462;2023-05-10T23:04:56;6.25;;;5.63;;
75930;SDS011;64609;47.052;15.462;2023-05-10T23:07:21;7.85;;;5.40;;
75930;SDS011;64609;47.052;15.462;2023-05-10T23:09:47;8.57;;;5.68;;
75930;SDS011;64609;47.052;15.462;2023-05-10T23:12:13;7.30;;;5.78;;
75930;SDS011;64609;47.052;15.462;2023-05-10T23:14:39;6.57;;;5.80;;
75930;SDS011;64609;47.052;15.462;2023-05-10T23:17:05;6.10;;;5.50;;
75930;SDS011;64609;47.052;15.462;2023-05-10T23:19:31;7.68;;;5.57;;
75930;SDS011;64609;47.052;15.462;2023-05-10T23:21:57;6.88;;;5.82;;
75930;SDS011;64609;47.052;15.462;2023-05-10T23:24:23;8.35;;;5.88;;
75930;SDS011;64609;47.052;15.462;2023-05-10T23:26:50;9.38;;;6.10;;
75930;SDS011;64609;47.052;15.462;2023-05-10T23:29:15;6.82;;;6.10;;
75930;SDS011;64609;47.052;15.462;2023-05-10T23:31:41;6.60;;;5.82;;
75930;SDS011;64609;47.052;15.462;2023-05-10T23:34:10;8.75;;;5.90;;
75930;SDS011;64609;47.052;15.462;2023-05-10T23:36:36;9.43;;;6.35;;
75930;SDS011;64609;47.052;15.462;2023-05-10T23:39:02;8.50;;;6.30;;
75930;SDS011;64609;47.052;15.462;2023-05-10T23:41:28;7.40;;;6.25;;
75930;SDS011;64609;47.052;15.462;2023-05-10T23:43:53;7.32;;;6.10;;
75930;SDS011;64609;47.052;15.462;2023-05-10T23:46:19;8.98;;;6.40;;
75930;SDS011;64609;47.052;15.462;2023-05-10T23:48:45;10.23;;;6.28;;
75930;SDS011;64609;47.052;15.462;2023-05-10T23:51:10;9.77;;;5.88;;
75930;SDS011;64609;47.052;15.462;2023-05-10T23:53:36;12.55;;;6.25;;
75930;SDS011;64609;47.052;15.462;2023-05-10T23:56:02;15.13;;;6.57;;
75930;SDS011;64609;47.052;15.462;2023-05-10T23:58:28;8.07;;;6.03;;
